METAR Data
IDs: Format: Raw Decoded Include TAF

Data at: 0327 UTC 05 Jun 2020

KTKX 050315Z AUTO 00000KT 10SM CLR 24/21 A2984 RMK AO2
KTKX 050255Z AUTO 00000KT 10SM CLR 24/22 A2983 RMK AO2
KTKX 050235Z AUTO 00000KT 10SM CLR 24/22 A2982 RMK AO2
KTKX 050215Z AUTO 33003KT 10SM CLR 26/21 A2981 RMK AO2
KTKX 050155Z AUTO 34003KT 10SM CLR 26/21 A2982 RMK AO2
KTKX 050135Z AUTO 00000KT 10SM CLR 27/21 A2982 RMK AO2
KTKX 050115Z AUTO 31004KT 10SM CLR 27/22 A2981 RMK AO2
KTKX 050055Z AUTO 28004KT 10SM CLR 27/22 A2980 RMK AO2
KTKX 050035Z AUTO 28005KT 10SM CLR 28/23 A2980 RMK AO2
KTKX 050015Z AUTO 29004KT 10SM CLR 29/23 A2979 RMK AO2
KTKX 042355Z AUTO 29008KT 10SM CLR 29/22 A2979 RMK AO2
KTKX 042335Z AUTO 27007KT 10SM CLR 30/22 A2978 RMK AO2
KTKX 042315Z AUTO 28007KT 250V310 10SM FEW043 30/22 A2979 RMK AO2
KTKX 042255Z AUTO 30007KT 10SM SCT039 29/22 A2979 RMK AO2
KTKX 042235Z AUTO 27009G14KT 10SM BKN040 BKN048 29/21 A2979 RMK AO2
KTKX 042215Z AUTO 29011G17KT 10SM BKN042 BKN050 BKN070 30/21 A2978 RMK AO2
KTKX 042155Z AUTO 28011KT 10SM OVC070 30/21 A2979 RMK AO2
KTKX 042135Z AUTO 28008G13KT 10SM BKN070 OVC080 29/21 A2979 RMK AO2
KTKX 042115Z AUTO 27009KT 10SM FEW046 BKN080 29/21 A2978 RMK AO2
KTKX 042055Z AUTO 29012G18KT 10SM FEW040 FEW046 BKN080 29/20 A2979 RMK AO2 LTG DSNT NE
KTKX 042035Z AUTO 28009KT 10SM FEW041 SCT046 BKN085 29/21 A2979 RMK AO2
KTKX 042015Z AUTO 12.25000012G18KT 10SM FEW090 29/20 A2979 RMK AO2
KTKX 041955Z AUTO 25016KT 10SM CLR 29/20 A2979 RMK AO2
KTKX 041935Z AUTO 24017G23KT 10SM FEW040 30/20 A2978 RMK AO2
KTKX 041915Z AUTO 25019G27KT 10SM FEW025 SCT034 BKN040 29/20 A2978 RMK AO2
KTKX 041855Z AUTO 19011G16KT 10SM SCT024 BKN029 BKN035 28/25 A2979 RMK AO2
KTKX 041835Z AUTO 20013KT 10SM FEW018 SCT022 BKN029 28/25 A2979 RMK AO2
KTKX 041815Z AUTO 11.33333311G17KT 10SM SCT017 SCT022 BKN027 27/24 A2981 RMK AO2
KTKX 041755Z AUTO 20014KT 10SM SCT016 SCT023 27/24 A2981 RMK AO2
KTKX 041735Z AUTO 20010G18KT 10SM BKN016 OVC022 26/24 A2982 RMK AO2
KTKX 041715Z AUTO 20013G19KT 10SM BKN016 OVC023 26/23 A2982 RMK AO2 LTG DSNT S
KTKX 041655Z AUTO 19011KT 10SM OVC020 26/23 A2983 RMK AO2
KTKX 041635Z AUTO 19013KT 10SM OVC022 25/22 A2982 RMK AO2
KTKX 041615Z AUTO 20013G19KT 10SM BKN021 25/23 A2982 RMK AO2
KTKX 041555Z AUTO 17012G20KT 10SM FEW019 25/24 A2979 RMK AO2
KTKX 041535Z AUTO 16014G20KT 10SM CLR 24/24 A2979 RMK AO2 LTG DSNT S
KTKX 041515Z AUTO 14016G23KT 10SM FEW008 FEW029 23/23 A2979 RMK AO2 LTG DSNT SE AND S
KTKX 041455Z AUTO 14014G19KT 10SM FEW005 SCT018 BKN027 23/23 A2984 RMK AO2 LTG DSNT E-S P0022
KTKX 041435Z AUTO 20009KT 3SM VCTS DZ FEW005 BKN025 OVC042 23/23 A2988 RMK AO2 LTG DSNT E-S
KTKX 041415Z AUTO 15003KT 5SM VCTS DZ SCT003 BKN035 OVC040 22/22 A2987 RMK AO2 LTG DSNT E-S
KTKX 041355Z AUTO 02003KT 1/2SM +TSRA BKN003 OVC025 23/23 A2987 RMK AO2 LTG DSNT ALQDS P0040
KTKX 041335Z AUTO 35006KT 1 1/4SM -TSRA SCT003 OVC013 23/23 A2988 RMK AO2 LTG DSNT ALQDS
KTKX 041315Z AUTO 34007KT 10SM VCTS OVC014 24/23 A2988 RMK AO2 LTG DSNT N AND S AND NW
KTKX 041255Z AUTO 26007KT 10SM VCTS BKN016 BKN080 25/23 A2987 RMK AO2 LTG DSNT ALQDS
KTKX 041235Z AUTO 23008KT 10SM VCTS CLR 25/22 A2986 RMK AO2 LTG DSNT N AND S AND NW
KTKX 041215Z AUTO 23007KT 10SM VCTS FEW050 24/22 A2986 RMK AO2 LTG DSNT ALQDS
KTKX 041155Z AUTO 22007G12KT 10SM VCTS CLR 24/22 A2985 RMK AO2 LTG DSNT N AND S AND NW
KTKX 041135Z AUTO 20007KT 10SM VCTS FEW050 SCT060 23/22 A2984 RMK AO2 LTG DSNT W-N
KTKX 041115Z AUTO 19007KT 10SM BKN050 BKN060 23/22 A2984 RMK AO2 LTG DSNT N AND S AND NW
KTKX 041055Z AUTO 20006KT 10SM CLR 22/22 A2983 RMK AO2 LTG DSNT W-N
KTKX 041035Z AUTO 21004KT 10SM CLR 22/22 A2982 RMK AO2 LTG DSNT N
KTKX 041015Z AUTO 19005KT 10SM CLR 22/22 A2982 RMK AO2
KTKX 040955Z AUTO 19005KT 10SM CLR 22/22 A2982 RMK AO2 LTG DSNT W AND NW
KTKX 040935Z AUTO 19004KT 10SM BKN075 23/22 A2983 RMK AO2
KTKX 040915Z AUTO 17004KT 10SM BKN075 23/22 A2983 RMK AO2
KTKX 040855Z AUTO 19004KT 10SM CLR 23/22 A2984 RMK AO2 LTG DSNT W AND NW
KTKX 040835Z AUTO 20004KT 10SM CLR 23/22 A2984 RMK AO2
KTKX 040815Z AUTO 23004KT 10SM CLR 23/22 A2984 RMK AO2
KTKX 040755Z AUTO 24005KT 10SM CLR 23/22 A2983 RMK AO2 LTG DSNT N
KTKX 040735Z AUTO 21007KT 10SM CLR 24/22 A2984 RMK AO2
KTKX 040715Z AUTO 21009KT 10SM FEW033 24/22 A2984 RMK AO2
KTKX 040655Z AUTO 22007KT 10SM SCT033 24/22 A2986 RMK AO2
KTKX 040635Z AUTO 23007KT 10SM FEW039 24/21 A2987 RMK AO2
KTKX 040615Z AUTO 22008KT 10SM FEW039 24/21 A2987 RMK AO2
KTKX 040555Z AUTO 21008KT 10SM FEW025 24/21 A2988 RMK AO2
KTKX 040535Z AUTO 21007KT 10SM CLR 24/21 A2988 RMK AO2
KTKX 040515Z AUTO 19006KT 10SM CLR 25/21 A2988 RMK AO2
KTKX 040455Z AUTO 20006KT 10SM FEW042 24/22 A2987 RMK AO2
KTKX 040435Z AUTO 22008KT 10SM SCT041 SCT047 24/22 A2986 RMK AO2
KTKX 040415Z AUTO 22008KT 10SM BKN041 24/22 A2986 RMK AO2
KTKX 040355Z AUTO 22005KT 10SM CLR 24/22 A2987 RMK AO2
KTKX 040335Z AUTO 22005KT 10SM CLR 24/22 A2986 RMK AO2
KTKX 040315Z AUTO 21005KT 10SM CLR 24/22 A2986 RMK AO2
KTKX 040255Z AUTO 00000KT 10SM CLR 25/22 A2985 RMK AO2
KTKX 040235Z AUTO 16004KT 10SM CLR 25/22 A2986 RMK AO2
KTKX 040215Z AUTO 18005KT 10SM CLR 25/22 A2985 RMK AO2 LTG DSNT N AND SE
KTKX 040155Z AUTO 23004KT 10SM CLR 25/21 A2985 RMK AO2
KTKX 040135Z AUTO 26006KT 10SM CLR 25/22 A2985 RMK AO2
KTKX 040115Z AUTO 25007KT 10SM CLR 26/22 A2986 RMK AO2
KTKX 040055Z AUTO 27007KT 10SM CLR 26/21 A2987 RMK AO2
KTKX 040035Z AUTO 26008KT 10SM VCTS CLR 27/22 A2987 RMK AO2 LTG DSNT SE
KTKX 040015Z AUTO 27007KT 10SM CLR 27/22 A2986 RMK AO2
KTKX 032355Z AUTO 27009G18KT 10SM FEW090 28/22 A2988 RMK AO2 LTG DSNT NE AND E
KTKX 032335Z AUTO 26011G18KT 10SM SCT090 29/22 A2987 RMK AO2
KTKX 032315Z AUTO 27012G18KT 10SM VCTS FEW085 30/22 A2988 RMK AO2 LTG DSNT N AND SE
KTKX 032255Z AUTO 25014G20KT 10SM VCTS BKN055 BKN085 31/21 A2987 RMK AO2 LTG DSNT ALQDS
KTKX 032235Z AUTO 25011KT 7SM BKN055 BKN065 BKN085 31/19 A2986 RMK AO2 LTG DSNT SW-NW
KTKX 032215Z AUTO 22012KT 10SM FEW065 BKN080 31/20 A2986 RMK AO2 TSNO
KTKX 032155Z AUTO 22009G18KT 10SM SCT075 SCT085 34/20 A2985 RMK AO2
KTKX 032135Z AUTO 19010KT 10SM FEW055 SCT075 SCT085 32/20 A2985 RMK AO2 LTG DSNT SW AND W
KTKX 032115Z AUTO 20005KT 10SM FEW070 FEW085 32/19 A2986 RMK AO2 LTG DSNT SW-N
KTKX 032055Z AUTO VRB05KT 10SM CLR 32/20 A2986 RMK AO2
KTKX 032035Z AUTO 26008KT 10SM CLR 33/20 A2987 RMK AO2 LTG DSNT SE AND S
KTKX 032015Z AUTO VRB04G10KT 10SM FEW050 33/20 A2987 RMK AO2 LTG DSNT SW AND W
KTKX 031955Z AUTO VRB04KT 10SM SCT050 SCT055 33/20 A2988 RMK AO2
KTKX 031935Z AUTO 25006KT 10SM CLR 33/20 A2989 RMK AO2
KTKX 031915Z AUTO 30003G11KT 10SM FEW050 32/20 A2990 RMK AO2
KTKX 031855Z AUTO 20005KT 10SM CLR 32/20 A2991 RMK AO2
KTKX 031835Z AUTO 27008KT 230V290 10SM FEW055 32/20 A2992 RMK AO2
KTKX 031815Z AUTO 27005KT 10SM SCT055 31/19 A2993 RMK AO2
KTKX 031755Z AUTO VRB05KT 10SM SCT055 31/19 A2994 RMK AO2 LTG DSNT SW
KTKX 031735Z AUTO 28008KT 10SM CLR 31/19 A2995 RMK AO2
KTKX 031715Z AUTO VRB05KT 10SM CLR 31/19 A2995 RMK AO2
KTKX 031655Z AUTO 23004G10KT 10SM CLR 31/18 A2997 RMK AO2
KTKX 031635Z AUTO VRB04KT 10SM CLR 31/19 A2997 RMK AO2
KTKX 031615Z AUTO 26007KT 10SM CLR 30/18 A2998 RMK AO2
KTKX 031555Z AUTO 24007KT 10SM CLR 30/19 A2998 RMK AO2
KTKX 031535Z AUTO 25007KT 240V300 10SM CLR 30/19 A2998 RMK AO2